createdAt,value
2017-12-29T10:15:58.823Z,8.40
2017-12-29T10:16:58.765Z,8.60
2017-12-29T10:18:53.220Z,8.60
2017-12-29T10:19:53.187Z,6.70
2017-12-29T10:21:49.135Z,7.90
2017-12-29T10:22:47.618Z,6.80
2017-12-29T10:27:20.356Z,8.00
2017-12-29T10:28:20.935Z,8.70
2017-12-29T10:30:16.261Z,6.40
2017-12-29T10:31:16.262Z,6.80
2017-12-29T10:33:13.208Z,8.90
2017-12-29T10:34:12.182Z,9.40
2017-12-29T10:36:08.139Z,9.30
2017-12-29T10:37:08.636Z,6.50
2017-12-29T10:39:04.573Z,7.20
2017-12-29T10:40:04.028Z,8.20
2017-12-29T10:42:01.401Z,10.80
2017-12-29T10:43:01.406Z,8.10
2017-12-29T10:44:55.922Z,6.50
2017-12-29T10:45:56.411Z,6.80
2017-12-29T10:47:51.871Z,7.50
2017-12-29T10:48:51.806Z,7.60
2017-12-29T10:50:47.754Z,7.10
2017-12-29T10:51:47.741Z,9.70
2017-12-29T10:53:46.171Z,10.00
2017-12-29T10:54:45.661Z,8.00
2017-12-29T10:56:41.627Z,7.40
2017-12-29T10:57:41.561Z,9.00
2017-12-29T10:59:38.018Z,7.50
2017-12-29T11:00:37.502Z,7.90
2017-12-29T11:02:33.943Z,14.80
2017-12-29T11:03:33.413Z,10.20
2017-12-29T11:05:30.368Z,7.40
2017-12-29T11:06:29.359Z,6.70
2017-12-29T11:08:25.276Z,6.80
2017-12-29T11:09:25.294Z,6.80
2017-12-29T11:11:21.246Z,8.90
2017-12-29T11:12:21.232Z,6.80
2017-12-29T11:14:17.214Z,7.70
2017-12-29T11:15:17.177Z,6.60
2017-12-29T11:17:13.150Z,7.30
2017-12-29T11:18:13.069Z,6.50
2017-12-29T11:20:09.027Z,10.00
2017-12-29T11:21:09.000Z,7.00
2017-12-29T11:23:04.980Z,9.30
2017-12-29T11:24:04.950Z,6.70
2017-12-29T11:26:01.898Z,8.80
2017-12-29T11:27:01.389Z,10.90
2017-12-29T11:28:57.345Z,6.10
2017-12-29T11:29:56.836Z,7.60
2017-12-29T11:31:52.766Z,10.70
2017-12-29T11:32:52.764Z,7.60
2017-12-29T11:34:49.223Z,6.00
2017-12-29T11:35:48.715Z,8.50
2017-12-29T11:37:44.666Z,6.30
2017-12-29T11:38:44.574Z,9.30
2017-12-29T11:40:40.502Z,6.80
2017-12-29T11:41:40.494Z,6.80
2017-12-29T11:43:37.455Z,7.90
2017-12-29T11:44:36.416Z,7.50
2017-12-29T11:46:32.400Z,12.00
2017-12-29T11:47:32.354Z,9.80
2017-12-29T11:49:28.308Z,5.10
2017-12-29T11:50:28.811Z,6.30
2017-12-29T11:52:24.727Z,9.60
2017-12-29T11:53:24.202Z,7.10
2017-12-29T11:55:20.204Z,7.30
2017-12-29T11:56:20.119Z,8.70
2017-12-29T11:58:17.068Z,6.50
2017-12-29T11:59:16.052Z,8.90
2017-12-29T12:01:14.526Z,8.30
2017-12-29T12:02:14.100Z,6.30
2017-12-29T12:04:10.026Z,5.90
2017-12-29T12:05:10.051Z,4.30
2017-12-29T12:07:06.005Z,7.20
2017-12-29T12:08:05.963Z,7.90
2017-12-29T12:10:01.929Z,7.20
2017-12-29T12:11:02.424Z,7.30
2017-12-29T12:12:58.857Z,9.50
2017-12-29T12:13:57.854Z,7.00
2017-12-29T12:15:55.891Z,9.30
2017-12-29T12:16:55.895Z,6.30
2017-12-29T12:18:51.849Z,6.70
2017-12-29T12:19:51.850Z,8.30
2017-12-29T12:21:47.777Z,5.80
2017-12-29T12:22:47.777Z,9.40
2017-12-29T12:24:43.704Z,6.20
2017-12-29T12:25:45.226Z,6.30
2017-12-29T12:27:40.157Z,4.80
2017-12-29T12:28:39.600Z,4.20
2017-12-29T12:30:36.559Z,9.70
2017-12-29T12:31:35.538Z,7.90
2017-12-29T12:33:31.509Z,6.70
2017-12-29T12:34:31.482Z,7.70
2017-12-29T12:36:27.948Z,6.40
2017-12-29T12:37:27.484Z,6.90
2017-12-29T12:39:23.400Z,6.00
2017-12-29T12:40:23.364Z,8.40
2017-12-29T12:42:20.810Z,5.70
2017-12-29T12:43:19.276Z,5.20
2017-12-29T12:45:16.736Z,6.90
2017-12-29T12:46:15.201Z,3.90
2017-12-29T12:48:11.121Z,4.70
2017-12-29T12:49:11.110Z,5.80
2017-12-29T12:51:07.073Z,5.50
2017-12-29T12:52:07.053Z,6.00
2017-12-29T12:54:03.517Z,4.70
2017-12-29T12:55:03.504Z,5.10
2017-12-29T12:56:58.960Z,4.70
2017-12-29T12:57:58.904Z,7.80
2017-12-29T12:59:55.354Z,5.10
2017-12-29T13:00:54.830Z,6.70
2017-12-29T13:02:50.790Z,7.00
2017-12-29T13:03:51.278Z,8.60
2017-12-29T13:05:47.729Z,5.00
2017-12-29T13:06:46.714Z,9.10
2017-12-29T13:08:43.658Z,6.90
2017-12-29T13:09:43.151Z,6.70
2017-12-29T13:11:38.584Z,6.00
2017-12-29T13:12:38.568Z,6.90
2017-12-29T13:14:35.546Z,5.90
2017-12-29T13:15:34.492Z,5.50
2017-12-29T13:17:31.455Z,5.40
2017-12-29T13:18:30.942Z,7.20
2017-12-29T13:20:26.368Z,7.10
2017-12-29T13:21:26.337Z,7.50
2017-12-29T13:23:22.794Z,7.90
2017-12-29T13:24:22.287Z,4.00
2017-12-29T13:26:18.224Z,23.00
2017-12-29T13:27:18.737Z,19.90
2017-12-29T13:29:14.156Z,7.90
2017-12-29T13:30:14.148Z,7.90
2017-12-29T13:32:10.129Z,9.00
2017-12-29T13:33:10.065Z,6.60
2017-12-29T13:35:06.516Z,6.20
2017-12-29T13:36:06.029Z,6.10
2017-12-29T13:38:02.007Z,5.50
2017-12-29T13:39:02.486Z,6.50
2017-12-29T13:40:57.854Z,7.80
2017-12-29T13:41:57.858Z,8.60
2017-12-29T13:43:54.728Z,7.50
2017-12-29T13:44:53.787Z,8.10
2017-12-29T13:46:49.729Z,6.80
2017-12-29T13:47:49.713Z,6.50
2017-12-29T13:49:45.642Z,6.30
2017-12-29T13:50:45.632Z,5.20
2017-12-29T13:52:42.109Z,6.10
2017-12-29T13:53:41.579Z,7.80
2017-12-29T13:55:38.024Z,7.20
2017-12-29T13:56:37.514Z,4.90
2017-12-29T13:58:34.469Z,5.70
2017-12-29T13:59:33.461Z,6.60
2017-12-29T14:01:29.441Z,8.40
2017-12-29T14:02:29.395Z,5.80
2017-12-29T14:04:25.318Z,6.40
2017-12-29T14:05:25.330Z,7.70
2017-12-29T14:07:23.776Z,6.60
2017-12-29T14:08:23.224Z,5.30
2017-12-29T14:10:18.598Z,10.30
2017-12-29T14:11:17.660Z,10.00
2017-12-29T14:13:14.116Z,6.90
2017-12-29T14:14:14.098Z,7.50
2017-12-29T14:16:10.024Z,7.20
2017-12-29T14:17:10.023Z,11.10
2017-12-29T14:19:05.468Z,7.20
2017-12-29T14:20:05.428Z,5.90
2017-12-29T14:22:01.338Z,7.70
2017-12-29T14:23:01.347Z,8.10
2017-12-29T14:24:59.281Z,10.90
2017-12-29T14:25:59.266Z,7.40
2017-12-29T14:27:55.724Z,7.60
2017-12-29T14:28:55.160Z,16.80
2017-12-29T14:30:51.099Z,11.30
2017-12-29T14:31:51.081Z,9.70
2017-12-29T14:33:47.053Z,9.40
2017-12-29T14:34:47.574Z,10.60
2017-12-29T14:36:43.968Z,15.20
2017-12-29T14:37:42.947Z,8.50
2017-12-29T14:39:39.418Z,9.90
2017-12-29T14:40:38.890Z,14.70
2017-12-29T14:42:34.800Z,10.00
2017-12-29T14:43:34.809Z,8.20
2017-12-29T14:45:29.757Z,7.60
2017-12-29T14:46:29.228Z,6.40
2017-12-29T14:48:24.682Z,9.00
2017-12-29T14:49:23.650Z,8.40
2017-12-29T14:51:18.105Z,11.00
2017-12-29T14:52:17.105Z,11.60
2017-12-29T14:54:16.046Z,10.10
2017-12-29T14:55:15.019Z,11.60
2017-12-29T14:57:09.975Z,11.10
2017-12-29T14:58:09.419Z,11.10
2017-12-29T15:00:05.356Z,8.40
2017-12-29T15:01:05.347Z,9.90
2017-12-29T15:03:00.305Z,14.40
2017-12-29T15:04:00.292Z,17.10
2017-12-29T15:05:54.216Z,10.10
2017-12-29T15:06:54.202Z,12.10
2017-12-29T15:08:49.152Z,10.00
2017-12-29T15:09:48.634Z,8.80
2017-12-29T15:11:44.076Z,13.60
2017-12-29T15:12:43.028Z,12.30
2017-12-29T15:14:37.478Z,11.20
2017-12-29T15:15:37.472Z,12.20
2017-12-29T15:17:33.926Z,13.00
2017-12-29T15:18:33.909Z,10.90
2017-12-29T15:20:29.269Z,12.70
2017-12-29T15:21:29.290Z,13.50
2017-12-29T15:23:25.233Z,11.90
2017-12-29T15:24:25.216Z,10.40
2017-12-29T15:26:18.624Z,9.00
2017-12-29T15:27:18.626Z,11.20
2017-12-29T15:29:12.565Z,10.80
2017-12-29T15:30:12.047Z,11.30
2017-12-29T15:32:08.499Z,11.50
2017-12-29T15:33:08.500Z,9.20
2017-12-29T15:35:01.378Z,11.20
2017-12-29T15:36:01.387Z,11.90
2017-12-29T15:37:55.833Z,17.60
2017-12-29T15:38:55.818Z,14.30
2017-12-29T15:40:51.242Z,11.90
2017-12-29T15:41:51.253Z,11.60
2017-12-29T15:43:44.731Z,8.80
2017-12-29T15:44:44.695Z,11.30
2017-12-29T15:46:39.117Z,11.60
2017-12-29T15:47:39.114Z,13.30
2017-12-29T15:49:35.076Z,14.30
2017-12-29T15:50:35.566Z,14.60
2017-12-29T15:52:28.977Z,9.20
2017-12-29T15:53:28.465Z,9.10
2017-12-29T15:55:22.409Z,9.00
2017-12-29T15:56:21.884Z,11.00
2017-12-29T15:58:18.768Z,8.00
2017-12-29T15:59:17.823Z,10.00
2017-12-29T16:01:13.272Z,8.90
2017-12-29T16:02:12.247Z,11.10
2017-12-29T16:04:06.675Z,9.60
2017-12-29T16:05:06.664Z,11.20
2017-12-29T16:07:01.118Z,11.40
2017-12-29T16:08:01.116Z,7.30
2017-12-29T16:09:57.065Z,7.80
2017-12-29T16:10:57.015Z,6.70
2017-12-29T16:12:52.949Z,8.90
2017-12-29T16:13:52.938Z,8.70
2017-12-29T16:15:49.881Z,11.00
2017-12-29T16:16:49.395Z,11.10
2017-12-29T16:18:43.330Z,12.70
2017-12-29T16:19:43.836Z,10.80
2017-12-29T16:21:37.745Z,8.20
2017-12-29T16:22:37.768Z,9.40
2017-12-29T16:24:34.177Z,9.60
2017-12-29T16:25:32.148Z,10.40
2017-12-29T16:27:28.598Z,7.60
2017-12-29T16:28:28.040Z,8.40
2017-12-29T16:30:23.983Z,7.50
2017-12-29T16:31:22.465Z,8.70
2017-12-29T16:33:15.894Z,8.10
2017-12-29T16:34:16.416Z,7.60
2017-12-29T16:36:10.360Z,9.10
2017-12-29T16:37:10.365Z,8.50
2017-12-29T16:39:04.816Z,9.50
2017-12-29T16:40:04.800Z,9.50
2017-12-29T16:41:59.757Z,10.10
2017-12-29T16:42:59.761Z,9.70
2017-12-29T16:44:55.154Z,8.90
2017-12-29T16:45:55.681Z,10.40
2017-12-29T16:47:52.094Z,7.90
2017-12-29T16:48:51.593Z,8.20
2017-12-29T16:50:46.976Z,6.80
2017-12-29T16:51:46.976Z,9.50
2017-12-29T16:53:42.929Z,9.90
2017-12-29T16:54:42.888Z,9.50
2017-12-29T16:56:37.842Z,10.10
2017-12-29T16:57:37.840Z,10.30
2017-12-29T16:59:32.259Z,7.80
2017-12-29T17:00:31.754Z,9.80
2017-12-29T17:02:26.202Z,9.20
2017-12-29T17:03:26.171Z,10.10
2017-12-29T17:05:22.139Z,10.80
2017-12-29T17:06:22.107Z,7.90
2017-12-29T17:08:19.557Z,10.70
2017-12-29T17:09:18.040Z,8.70
2017-12-29T17:11:12.967Z,6.10
2017-12-29T17:12:12.472Z,8.20
2017-12-29T17:14:07.397Z,5.90
2017-12-29T17:15:06.895Z,9.60
2017-12-29T17:17:01.356Z,7.10
2017-12-29T17:18:01.307Z,7.60
2017-12-29T17:19:57.770Z,8.20
2017-12-29T17:20:57.757Z,6.20
2017-12-29T17:22:53.195Z,5.40
2017-12-29T17:23:52.189Z,6.70
2017-12-29T17:25:46.131Z,8.00
2017-12-29T17:26:46.112Z,9.30
2017-12-29T17:28:40.536Z,9.00
2017-12-29T17:29:40.523Z,9.60
2017-12-29T17:31:36.489Z,5.50
2017-12-29T17:32:36.447Z,7.10
2017-12-29T17:34:29.910Z,6.30
2017-12-29T17:35:29.905Z,6.40
2017-12-29T17:37:24.375Z,6.20
2017-12-29T17:38:24.321Z,5.70
2017-12-29T17:40:19.272Z,7.80
2017-12-29T17:41:19.251Z,5.90
2017-12-29T17:43:14.670Z,4.40
2017-12-29T17:44:14.649Z,5.30
2017-12-29T17:46:09.111Z,6.50
2017-12-29T17:47:09.077Z,4.20
2017-12-29T17:49:03.499Z,4.30
2017-12-29T17:50:03.496Z,5.10
2017-12-29T17:51:59.945Z,4.40
2017-12-29T17:52:59.412Z,6.00
2017-12-29T17:54:53.887Z,8.10
2017-12-29T17:55:53.822Z,14.40
2017-12-29T17:57:48.242Z,8.90
2017-12-29T17:58:48.771Z,8.90
2017-12-29T18:00:44.674Z,11.10
2017-12-29T18:01:44.149Z,8.00
2017-12-29T18:03:38.860Z,6.50
2017-12-29T18:04:38.562Z,4.20
2017-12-29T18:06:34.519Z,4.90
2017-12-29T18:07:34.487Z,4.90
2017-12-29T18:09:30.428Z,4.60
2017-12-29T18:10:30.410Z,5.40
2017-12-29T18:12:26.861Z,4.90
2017-12-29T18:13:26.869Z,4.50
2017-12-29T18:15:22.296Z,4.80
2017-12-29T18:16:21.737Z,4.40
2017-12-29T18:18:15.245Z,4.70
2017-12-29T18:19:15.729Z,5.30
2017-12-29T18:21:09.677Z,4.10
2017-12-29T18:22:09.641Z,4.40
2017-12-29T18:24:04.053Z,6.40
2017-12-29T18:25:04.063Z,5.90
2017-12-29T18:26:58.517Z,5.10
2017-12-29T18:27:58.507Z,7.00
2017-12-29T18:29:53.475Z,3.20
2017-12-29T18:30:52.916Z,3.70
2017-12-29T18:32:47.374Z,3.50
2017-12-29T18:33:47.350Z,5.50
2017-12-29T18:35:42.315Z,4.40
2017-12-29T18:36:41.796Z,4.70
2017-12-29T18:38:36.258Z,4.30
2017-12-29T18:39:36.218Z,3.70
2017-12-29T18:41:31.180Z,4.00
2017-12-29T18:42:30.650Z,2.80
2017-12-29T18:44:25.109Z,8.40
2017-12-29T18:45:25.592Z,3.20
2017-12-29T18:47:20.049Z,5.30
2017-12-29T18:48:19.467Z,2.80
2017-12-29T18:50:18.403Z,3.30
2017-12-29T18:51:17.492Z,4.10
2017-12-29T18:53:11.951Z,3.40
2017-12-29T18:54:11.915Z,4.20
2017-12-29T18:56:06.869Z,7.10
2017-12-29T18:57:06.858Z,4.50
2017-12-29T18:58:59.796Z,4.00
2017-12-29T18:59:59.778Z,4.60
2017-12-29T19:01:54.735Z,6.30
2017-12-29T19:02:54.223Z,5.00
2017-12-29T19:04:50.148Z,3.40
2017-12-29T19:05:50.140Z,5.70
2017-12-29T19:07:45.135Z,4.00
2017-12-29T19:08:44.542Z,3.70
2017-12-29T19:10:38.987Z,4.10
2017-12-29T19:11:39.481Z,4.20
2017-12-29T19:13:33.400Z,4.80
2017-12-29T19:14:32.396Z,4.90
2017-12-29T19:16:27.357Z,4.00
2017-12-29T19:17:26.839Z,3.40
2017-12-29T19:19:21.254Z,6.90
2017-12-29T19:20:21.255Z,6.40
2017-12-29T19:22:14.668Z,7.00
2017-12-29T19:23:14.665Z,5.20
2017-12-29T19:25:09.642Z,4.30
2017-12-29T19:26:09.111Z,4.40
2017-12-29T19:28:03.566Z,6.20
2017-12-29T19:29:03.490Z,6.70
2017-12-29T19:30:56.952Z,5.90
2017-12-29T19:31:57.454Z,4.70
2017-12-29T19:33:53.860Z,4.80
2017-12-29T19:34:52.843Z,5.20
2017-12-29T19:36:47.784Z,5.40
2017-12-29T19:37:47.270Z,6.50
2017-12-29T19:39:45.706Z,9.10
2017-12-29T19:40:45.187Z,5.10
2017-12-29T19:42:39.632Z,5.10
2017-12-29T19:43:39.615Z,6.50
2017-12-29T19:45:35.616Z,7.00
2017-12-29T19:46:35.545Z,5.20
2017-12-29T19:48:31.465Z,6.30
2017-12-29T19:49:31.472Z,4.50
2017-12-29T19:51:25.944Z,3.60
2017-12-29T19:52:26.417Z,3.60
2017-12-29T19:54:21.866Z,3.70
2017-12-29T19:55:21.878Z,3.80
2017-12-29T19:57:18.718Z,3.90
2017-12-29T19:58:17.754Z,3.50
2017-12-29T20:00:14.212Z,3.80
2017-12-29T20:01:13.699Z,4.20
2017-12-29T20:03:08.640Z,5.40
2017-12-29T20:04:08.096Z,8.40
2017-12-29T20:06:02.555Z,6.20
2017-12-29T20:07:02.527Z,4.40
2017-12-29T20:08:58.513Z,6.90
2017-12-29T20:09:58.450Z,6.60
2017-12-29T20:11:54.903Z,5.20
2017-12-29T20:12:54.373Z,7.80
2017-12-29T20:14:50.324Z,5.50
2017-12-29T20:15:51.212Z,5.90
2017-12-29T20:17:47.234Z,4.00
2017-12-29T20:18:46.191Z,5.10
2017-12-29T20:20:41.145Z,5.10
2017-12-29T20:21:40.663Z,4.90
2017-12-29T20:23:36.545Z,4.40
2017-12-29T20:24:37.074Z,5.00
2017-12-29T20:26:32.514Z,4.60
2017-12-29T20:27:32.998Z,5.00
2017-12-29T20:29:26.950Z,6.70
2017-12-29T20:30:26.936Z,5.30
2017-12-29T20:32:23.394Z,5.50
2017-12-29T20:33:22.886Z,4.60
2017-12-29T20:35:19.833Z,6.60
2017-12-29T20:36:19.332Z,6.60
2017-12-29T20:38:13.244Z,6.30
2017-12-29T20:39:13.772Z,6.70
2017-12-29T20:41:11.673Z,5.70
2017-12-29T20:42:12.159Z,8.10
2017-12-29T20:44:06.164Z,6.10
2017-12-29T20:45:05.658Z,7.10
2017-12-29T20:47:00.069Z,8.20
2017-12-29T20:48:00.082Z,8.40
2017-12-29T20:49:55.040Z,8.40
2017-12-29T20:50:54.501Z,8.90
2017-12-29T20:52:50.443Z,7.70
2017-12-29T20:53:50.450Z,6.90
2017-12-29T20:55:44.862Z,7.20
2017-12-29T20:56:44.844Z,6.70
2017-12-29T20:58:41.864Z,8.00
2017-12-29T20:59:39.784Z,6.50
2017-12-29T21:01:32.693Z,7.30
2017-12-29T21:02:33.208Z,6.60
2017-12-29T21:04:27.679Z,6.90
2017-12-29T21:05:27.137Z,6.10
2017-12-29T21:07:22.092Z,7.90
2017-12-29T21:08:22.993Z,7.10
2017-12-29T21:10:16.503Z,7.60
2017-12-29T21:11:17.493Z,7.40
2017-12-29T21:13:10.406Z,11.00
2017-12-29T21:14:10.400Z,7.50
2017-12-29T21:16:06.334Z,9.30
2017-12-29T21:17:06.295Z,8.80
2017-12-29T21:19:00.772Z,10.20
2017-12-29T21:20:00.741Z,12.20
2017-12-29T21:21:57.225Z,12.50
2017-12-29T21:22:56.702Z,14.30
2017-12-29T21:24:50.644Z,16.40
2017-12-29T21:25:50.142Z,17.30
2017-12-29T21:27:46.108Z,19.50
2017-12-29T21:28:46.029Z,21.00
2017-12-29T21:30:42.022Z,25.50
2017-12-29T21:31:42.480Z,18.30
2017-12-29T21:33:37.417Z,22.30
2017-12-29T21:34:36.412Z,21.00
2017-12-29T21:36:30.820Z,22.00
2017-12-29T21:37:30.784Z,21.30
2017-12-29T21:39:24.224Z,19.70
2017-12-29T21:40:24.225Z,15.90
2017-12-29T21:42:18.664Z,17.10
2017-12-29T21:43:18.663Z,15.70
2017-12-29T21:45:15.102Z,19.50
2017-12-29T21:46:14.584Z,14.60
2017-12-29T21:48:07.982Z,16.50
2017-12-29T21:49:08.542Z,15.70
2017-12-29T21:51:04.921Z,14.50
2017-12-29T21:52:03.905Z,16.50
2017-12-29T21:53:58.363Z,20.30
2017-12-29T21:54:58.347Z,17.90
2017-12-29T21:56:53.269Z,17.60
2017-12-29T21:57:52.761Z,14.70
2017-12-29T21:59:49.217Z,16.10
2017-12-29T22:00:48.677Z,14.30
2017-12-29T22:02:44.645Z,15.60
2017-12-29T22:03:45.118Z,17.90
2017-12-29T22:05:39.074Z,14.10
2017-12-29T22:06:39.129Z,15.40
2017-12-29T22:08:34.003Z,15.30
2017-12-29T22:09:33.472Z,14.80
2017-12-29T22:11:29.442Z,11.00
2017-12-29T22:12:29.912Z,13.80
2017-12-29T22:14:23.862Z,12.00
2017-12-29T22:15:24.358Z,12.40
2017-12-29T22:17:19.733Z,14.00
2017-12-29T22:18:19.742Z,14.80
2017-12-29T22:20:14.179Z,12.10
2017-12-29T22:21:14.697Z,11.50
2017-12-29T22:23:10.116Z,10.50
2017-12-29T22:24:10.107Z,10.10
2017-12-29T22:26:04.573Z,13.30
2017-12-29T22:27:05.069Z,9.00
2017-12-29T22:28:59.479Z,11.50
2017-12-29T22:29:58.962Z,14.00
2017-12-29T22:31:54.886Z,13.00
2017-12-29T22:32:54.879Z,10.50
2017-12-29T22:34:49.309Z,9.80
2017-12-29T22:35:49.840Z,8.40
2017-12-29T22:37:44.269Z,8.50
2017-12-29T22:38:44.690Z,11.40
2017-12-29T22:40:40.151Z,12.40
2017-12-29T22:41:39.623Z,10.00
2017-12-29T22:43:35.591Z,10.80
2017-12-29T22:44:35.566Z,9.50
2017-12-29T22:46:31.520Z,12.30
2017-12-29T22:47:31.483Z,16.20
2017-12-29T22:49:27.414Z,9.10
2017-12-29T22:50:27.407Z,7.70
2017-12-29T22:52:24.352Z,14.50
2017-12-29T22:53:23.326Z,11.90
2017-12-29T22:55:19.267Z,10.90
2017-12-29T22:56:19.777Z,6.20
2017-12-29T22:58:13.710Z,7.30
2017-12-29T22:59:15.214Z,7.50
2017-12-29T23:01:08.176Z,8.50
2017-12-29T23:02:08.651Z,8.90
2017-12-29T23:04:04.075Z,10.40
2017-12-29T23:05:04.074Z,9.20
2017-12-29T23:07:00.000Z,8.80
2017-12-29T23:07:59.995Z,8.90
2017-12-29T23:09:55.959Z,11.60
2017-12-29T23:10:55.941Z,10.30
2017-12-29T23:12:50.384Z,11.70
2017-12-29T23:13:50.312Z,11.70
2017-12-29T23:15:44.309Z,6.80
2017-12-29T23:16:44.328Z,8.20
2017-12-29T23:18:39.257Z,10.90
2017-12-29T23:19:38.222Z,9.80
2017-12-29T23:21:34.148Z,13.00
2017-12-29T23:22:34.670Z,8.20
2017-12-29T23:24:30.091Z,10.80
2017-12-29T23:25:30.077Z,12.40
2017-12-29T23:27:24.551Z,13.60
2017-12-29T23:28:24.484Z,11.80
2017-12-29T23:30:20.947Z,8.90
2017-12-29T23:31:20.936Z,10.60
2017-12-29T23:33:16.906Z,10.90
2017-12-29T23:34:16.364Z,12.30
2017-12-29T23:36:12.324Z,12.10
2017-12-29T23:37:12.342Z,9.80
2017-12-29T23:39:08.273Z,13.90
2017-12-29T23:40:08.758Z,11.90
2017-12-29T23:42:02.196Z,11.60
2017-12-29T23:43:01.679Z,13.00
2017-12-29T23:44:57.639Z,7.70
2017-12-29T23:45:57.620Z,9.40
2017-12-29T23:47:54.075Z,17.00
2017-12-29T23:48:53.502Z,12.20
2017-12-29T23:50:47.945Z,10.50
2017-12-29T23:51:47.936Z,15.80
2017-12-29T23:53:42.875Z,13.90
2017-12-29T23:54:42.357Z,12.00
2017-12-29T23:56:38.323Z,14.80
2017-12-29T23:57:38.318Z,17.10
2017-12-29T23:59:32.735Z,10.00
